sensor_id;sensor_type;location;lat;lon;timestamp;temperature;humidity
37086;DHT22;23001;45.952;12.676;2022-10-16T05:46:23;15.60;99.90
37086;DHT22;23001;45.952;12.676;2022-10-16T06:23:31;15.90;99.90
37086;DHT22;23001;45.952;12.676;2022-10-16T06:26:34;15.90;99.90
37086;DHT22;23001;45.952;12.676;2022-10-16T06:54:01;16.10;99.90
37086;DHT22;23001;45.952;12.676;2022-10-16T06:56:36;16.10;99.90
37086;DHT22;23001;45.952;12.676;2022-10-16T06:59:05;16.20;99.90
37086;DHT22;23001;45.952;12.676;2022-10-16T07:01:33;16.20;99.90
37086;DHT22;23001;45.952;12.676;2022-10-16T07:04:00;16.20;99.90
37086;DHT22;23001;45.952;12.676;2022-10-16T07:06:30;16.20;99.90
37086;DHT22;23001;45.952;12.676;2022-10-16T07:08:56;16.30;99.90
37086;DHT22;23001;45.952;12.676;2022-10-16T07:11:22;16.30;99.90
37086;DHT22;23001;45.952;12.676;2022-10-16T07:16:53;16.10;99.90
37086;DHT22;23001;45.952;12.676;2022-10-16T07:19:45;16.20;99.90
37086;DHT22;23001;45.952;12.676;2022-10-16T07:22:20;16.30;99.90
37086;DHT22;23001;45.952;12.676;2022-10-16T07:27:46;16.40;99.90
37086;DHT22;23001;45.952;12.676;2022-10-16T07:30:12;16.50;99.90
37086;DHT22;23001;45.952;12.676;2022-10-16T07:32:38;16.60;99.90
37086;DHT22;23001;45.952;12.676;2022-10-16T07:35:29;16.60;99.90
37086;DHT22;23001;45.952;12.676;2022-10-16T07:37:55;16.80;99.90
37086;DHT22;23001;45.952;12.676;2022-10-16T07:40:28;16.70;99.90
37086;DHT22;23001;45.952;12.676;2022-10-16T07:42:54;16.80;99.90
37086;DHT22;23001;45.952;12.676;2022-10-16T07:45:20;16.80;99.90
37086;DHT22;23001;45.952;12.676;2022-10-16T07:47:57;16.80;99.90
37086;DHT22;23001;45.952;12.676;2022-10-16T07:50:26;16.80;99.90
37086;DHT22;23001;45.952;12.676;2022-10-16T07:53:00;16.80;99.90
37086;DHT22;23001;45.952;12.676;2022-10-16T07:55:34;16.80;99.90
37086;DHT22;23001;45.952;12.676;2022-10-16T07:58:00;16.80;99.90
37086;DHT22;23001;45.952;12.676;2022-10-16T08:00:26;17.00;99.90
37086;DHT22;23001;45.952;12.676;2022-10-16T08:02:51;17.00;99.90
37086;DHT22;23001;45.952;12.676;2022-10-16T08:05:17;17.10;99.90
37086;DHT22;23001;45.952;12.676;2022-10-16T08:07:42;17.00;99.90
37086;DHT22;23001;45.952;12.676;2022-10-16T08:10:14;16.90;99.90
37086;DHT22;23001;45.952;12.676;2022-10-16T08:13:26;17.10;99.90
37086;DHT22;23001;45.952;12.676;2022-10-16T08:15:53;17.10;99.90
37086;DHT22;23001;45.952;12.676;2022-10-16T08:18:19;17.10;99.90
37086;DHT22;23001;45.952;12.676;2022-10-16T08:20:45;17.20;99.90
37086;DHT22;23001;45.952;12.676;2022-10-16T08:23:11;17.20;99.90
37086;DHT22;23001;45.952;12.676;2022-10-16T08:25:37;17.30;99.90
37086;DHT22;23001;45.952;12.676;2022-10-16T08:28:06;17.30;99.90
37086;DHT22;23001;45.952;12.676;2022-10-16T08:30:32;17.30;99.90
37086;DHT22;23001;45.952;12.676;2022-10-16T08:32:58;17.20;99.90
37086;DHT22;23001;45.952;12.676;2022-10-16T08:35:23;17.30;99.90
37086;DHT22;23001;45.952;12.676;2022-10-16T08:37:49;17.40;99.90
37086;DHT22;23001;45.952;12.676;2022-10-16T08:40:22;17.40;99.90
37086;DHT22;23001;45.952;12.676;2022-10-16T08:52:03;17.60;99.90
37086;DHT22;23001;45.952;12.676;2022-10-16T08:54:31;17.70;99.90
37086;DHT22;23001;45.952;12.676;2022-10-16T08:59:37;17.90;99.90
37086;DHT22;23001;45.952;12.676;2022-10-16T09:02:03;17.90;99.90
37086;DHT22;23001;45.952;12.676;2022-10-16T09:07:34;18.00;99.90
37086;DHT22;23001;45.952;12.676;2022-10-16T09:12:58;18.10;99.90
37086;DHT22;23001;45.952;12.676;2022-10-16T09:18:30;18.30;99.90
37086;DHT22;23001;45.952;12.676;2022-10-16T09:23:27;18.40;99.90
37086;DHT22;23001;45.952;12.676;2022-10-16T09:26:00;18.50;99.90
37086;DHT22;23001;45.952;12.676;2022-10-16T09:28:26;18.50;99.90
37086;DHT22;23001;45.952;12.676;2022-10-16T09:30:52;18.60;99.90
37086;DHT22;23001;45.952;12.676;2022-10-16T09:33:18;18.70;99.90
37086;DHT22;23001;45.952;12.676;2022-10-16T09:35:51;18.70;99.90
37086;DHT22;23001;45.952;12.676;2022-10-16T09:38:36;18.70;99.90
37086;DHT22;23001;45.952;12.676;2022-10-16T09:41:13;18.80;99.90
37086;DHT22;23001;45.952;12.676;2022-10-16T09:43:49;18.90;99.90
37086;DHT22;23001;45.952;12.676;2022-10-16T09:46:33;18.90;99.90
37086;DHT22;23001;45.952;12.676;2022-10-16T09:49:03;19.00;99.90
37086;DHT22;23001;45.952;12.676;2022-10-16T09:51:30;19.10;99.90
37086;DHT22;23001;45.952;12.676;2022-10-16T09:53:57;19.20;99.90
37086;DHT22;23001;45.952;12.676;2022-10-16T09:56:27;19.30;99.90
37086;DHT22;23001;45.952;12.676;2022-10-16T09:59:08;19.50;99.90
37086;DHT22;23001;45.952;12.676;2022-10-16T10:01:41;19.50;99.90
37086;DHT22;23001;45.952;12.676;2022-10-16T10:04:08;19.40;99.90
37086;DHT22;23001;45.952;12.676;2022-10-16T10:06:34;19.30;99.90
37086;DHT22;23001;45.952;12.676;2022-10-16T10:09:04;19.20;99.90
37086;DHT22;23001;45.952;12.676;2022-10-16T10:12:04;19.20;99.90
37086;DHT22;23001;45.952;12.676;2022-10-16T10:16:48;19.30;99.90
37086;DHT22;23001;45.952;12.676;2022-10-16T10:19:17;19.40;99.90
37086;DHT22;23001;45.952;12.676;2022-10-16T10:21:43;19.40;99.90
37086;DHT22;23001;45.952;12.676;2022-10-16T10:24:10;19.30;99.90
37086;DHT22;23001;45.952;12.676;2022-10-16T10:26:36;19.40;99.90
37086;DHT22;23001;45.952;12.676;2022-10-16T10:29:04;19.50;99.90
37086;DHT22;23001;45.952;12.676;2022-10-16T10:36:43;19.80;99.90
37086;DHT22;23001;45.952;12.676;2022-10-16T10:39:27;19.80;99.90
37086;DHT22;23001;45.952;12.676;2022-10-16T10:42:20;19.80;99.90
37086;DHT22;23001;45.952;12.676;2022-10-16T10:45:08;19.80;99.90
37086;DHT22;23001;45.952;12.676;2022-10-16T11:09:56;20.60;99.90
37086;DHT22;23001;45.952;12.676;2022-10-16T11:12:34;20.60;99.90
37086;DHT22;23001;45.952;12.676;2022-10-16T11:15:13;20.50;99.90
37086;DHT22;23001;45.952;12.676;2022-10-16T11:20:49;20.60;99.90
37086;DHT22;23001;45.952;12.676;2022-10-16T11:23:27;20.60;99.90
37086;DHT22;23001;45.952;12.676;2022-10-16T11:25:55;20.60;99.90
37086;DHT22;23001;45.952;12.676;2022-10-16T11:28:29;20.70;99.90
37086;DHT22;23001;45.952;12.676;2022-10-16T11:30:57;20.70;99.90
37086;DHT22;23001;45.952;12.676;2022-10-16T11:33:26;20.70;99.90
37086;DHT22;23001;45.952;12.676;2022-10-16T11:36:00;20.80;99.90
37086;DHT22;23001;45.952;12.676;2022-10-16T11:40:56;20.90;99.90
37086;DHT22;23001;45.952;12.676;2022-10-16T11:44:12;21.00;99.90
37086;DHT22;23001;45.952;12.676;2022-10-16T11:46:23;21.10;99.90
37086;DHT22;23001;45.952;12.676;2022-10-16T11:51:24;21.10;99.90
37086;DHT22;23001;45.952;12.676;2022-10-16T11:53:57;21.10;99.90
37086;DHT22;23001;45.952;12.676;2022-10-16T11:56:35;21.00;99.90
37086;DHT22;23001;45.952;12.676;2022-10-16T11:59:26;21.00;99.90
37086;DHT22;23001;45.952;12.676;2022-10-16T12:07:23;20.90;99.90
37086;DHT22;23001;45.952;12.676;2022-10-16T12:10:41;20.80;99.90
37086;DHT22;23001;45.952;12.676;2022-10-16T12:16:50;20.70;99.90
37086;DHT22;23001;45.952;12.676;2022-10-16T12:19:02;20.70;99.90
37086;DHT22;23001;45.952;12.676;2022-10-16T12:21:31;20.60;99.90
37086;DHT22;23001;45.952;12.676;2022-10-16T12:23:58;20.70;99.90
37086;DHT22;23001;45.952;12.676;2022-10-16T12:27:00;20.70;99.90
37086;DHT22;23001;45.952;12.676;2022-10-16T12:31:55;20.80;99.90
37086;DHT22;23001;45.952;12.676;2022-10-16T12:37:31;20.90;99.90
37086;DHT22;23001;45.952;12.676;2022-10-16T12:39:57;21.00;99.90
37086;DHT22;23001;45.952;12.676;2022-10-16T12:42:31;21.00;99.90
37086;DHT22;23001;45.952;12.676;2022-10-16T12:44:57;21.10;99.90
37086;DHT22;23001;45.952;12.676;2022-10-16T12:49:57;21.00;99.90
37086;DHT22;23001;45.952;12.676;2022-10-16T12:52:24;21.00;99.90
37086;DHT22;23001;45.952;12.676;2022-10-16T13:18:05;20.60;99.90
37086;DHT22;23001;45.952;12.676;2022-10-16T13:20:51;20.50;99.90
37086;DHT22;23001;45.952;12.676;2022-10-16T13:26:49;20.60;99.90
37086;DHT22;23001;45.952;12.676;2022-10-16T13:29:38;20.50;99.90
37086;DHT22;23001;45.952;12.676;2022-10-16T13:32:09;20.50;99.90
37086;DHT22;23001;45.952;12.676;2022-10-16T13:34:59;20.60;99.90
37086;DHT22;23001;45.952;12.676;2022-10-16T13:37:37;20.60;99.90
37086;DHT22;23001;45.952;12.676;2022-10-16T13:40:09;20.60;99.90
37086;DHT22;23001;45.952;12.676;2022-10-16T13:42:38;20.60;99.90
37086;DHT22;23001;45.952;12.676;2022-10-16T13:45:25;20.60;99.90
37086;DHT22;23001;45.952;12.676;2022-10-16T13:54:21;20.50;99.90
37086;DHT22;23001;45.952;12.676;2022-10-16T13:59:54;20.50;99.90
37086;DHT22;23001;45.952;12.676;2022-10-16T14:05:01;20.50;99.90
37086;DHT22;23001;45.952;12.676;2022-10-16T14:10:07;20.60;99.90
37086;DHT22;23001;45.952;12.676;2022-10-16T14:12:43;20.60;99.90
37086;DHT22;23001;45.952;12.676;2022-10-16T14:15:16;20.70;99.90
37086;DHT22;23001;45.952;12.676;2022-10-16T14:35:41;20.60;99.90
37086;DHT22;23001;45.952;12.676;2022-10-16T14:38:18;20.60;99.90
37086;DHT22;23001;45.952;12.676;2022-10-16T14:43:50;20.50;99.90
37086;DHT22;23001;45.952;12.676;2022-10-16T14:46:52;20.40;99.90
37086;DHT22;23001;45.952;12.676;2022-10-16T14:49:27;20.30;99.90
37086;DHT22;23001;45.952;12.676;2022-10-16T15:01:26;20.10;99.90
37086;DHT22;23001;45.952;12.676;2022-10-16T15:03:52;20.10;99.90
37086;DHT22;23001;45.952;12.676;2022-10-16T15:06:19;20.10;99.90
37086;DHT22;23001;45.952;12.676;2022-10-16T15:08:45;20.10;99.90
37086;DHT22;23001;45.952;12.676;2022-10-16T15:11:15;20.10;99.90
37086;DHT22;23001;45.952;12.676;2022-10-16T15:17:10;20.10;99.90
37086;DHT22;23001;45.952;12.676;2022-10-16T15:19:46;20.00;99.90
37086;DHT22;23001;45.952;12.676;2022-10-16T15:22:21;19.90;99.90
37086;DHT22;23001;45.952;12.676;2022-10-16T15:24:48;19.90;99.90
37086;DHT22;23001;45.952;12.676;2022-10-16T15:30:36;19.90;99.90
37086;DHT22;23001;45.952;12.676;2022-10-16T15:33:02;19.90;99.90
37086;DHT22;23001;45.952;12.676;2022-10-16T15:35:49;19.80;99.90
37086;DHT22;23001;45.952;12.676;2022-10-16T15:38:15;19.80;99.90
37086;DHT22;23001;45.952;12.676;2022-10-16T15:40:41;19.80;99.90
37086;DHT22;23001;45.952;12.676;2022-10-16T15:48:50;19.60;99.90
37086;DHT22;23001;45.952;12.676;2022-10-16T15:51:16;19.50;99.90
37086;DHT22;23001;45.952;12.676;2022-10-16T15:53:42;19.50;99.90
37086;DHT22;23001;45.952;12.676;2022-10-16T15:58:49;19.40;99.90
37086;DHT22;23001;45.952;12.676;2022-10-16T16:01:34;19.40;99.90
37086;DHT22;23001;45.952;12.676;2022-10-16T16:04:09;19.40;99.90
37086;DHT22;23001;45.952;12.676;2022-10-16T16:06:35;19.30;99.90
37086;DHT22;23001;45.952;12.676;2022-10-16T16:09:10;19.20;99.90
37086;DHT22;23001;45.952;12.676;2022-10-16T16:11:35;19.10;99.90
37086;DHT22;23001;45.952;12.676;2022-10-16T16:16:56;19.00;99.90
37086;DHT22;23001;45.952;12.676;2022-10-16T16:19:22;19.00;99.90
37086;DHT22;23001;45.952;12.676;2022-10-16T16:21:50;18.90;99.90
37086;DHT22;23001;45.952;12.676;2022-10-16T16:24:16;18.90;99.90
37086;DHT22;23001;45.952;12.676;2022-10-16T16:35:50;18.70;99.90
37086;DHT22;23001;45.952;12.676;2022-10-16T16:38:20;18.60;99.90
37086;DHT22;23001;45.952;12.676;2022-10-16T16:53:11;18.40;99.90
37086;DHT22;23001;45.952;12.676;2022-10-16T16:55:37;18.40;99.90
37086;DHT22;23001;45.952;12.676;2022-10-16T16:58:04;18.40;99.90
37086;DHT22;23001;45.952;12.676;2022-10-16T17:00:30;18.30;99.90
37086;DHT22;23001;45.952;12.676;2022-10-16T17:03:05;18.20;99.90
37086;DHT22;23001;45.952;12.676;2022-10-16T17:05:30;18.20;99.90
37086;DHT22;23001;45.952;12.676;2022-10-16T17:07:56;18.10;99.90
37086;DHT22;23001;45.952;12.676;2022-10-16T17:10:41;18.10;99.90
37086;DHT22;23001;45.952;12.676;2022-10-16T17:16:24;18.00;99.90
37086;DHT22;23001;45.952;12.676;2022-10-16T17:19:23;17.90;99.90
37086;DHT22;23001;45.952;12.676;2022-10-16T17:21:45;17.80;99.90
37086;DHT22;23001;45.952;12.676;2022-10-16T17:24:23;17.80;99.90
37086;DHT22;23001;45.952;12.676;2022-10-16T18:17:10;17.20;99.90
37086;DHT22;23001;45.952;12.676;2022-10-16T18:19:35;17.20;99.90
37086;DHT22;23001;45.952;12.676;2022-10-16T18:22:04;17.20;99.90
37086;DHT22;23001;45.952;12.676;2022-10-16T18:24:30;17.10;99.90
37086;DHT22;23001;45.952;12.676;2022-10-16T18:26:55;17.10;99.90
37086;DHT22;23001;45.952;12.676;2022-10-16T18:29:25;17.10;99.90
37086;DHT22;23001;45.952;12.676;2022-10-16T18:31:51;17.10;99.90
37086;DHT22;23001;45.952;12.676;2022-10-16T18:34:35;17.00;99.90
37086;DHT22;23001;45.952;12.676;2022-10-16T18:37:04;17.00;99.90
37086;DHT22;23001;45.952;12.676;2022-10-16T18:39:29;17.00;99.90
37086;DHT22;23001;45.952;12.676;2022-10-16T18:41:55;17.00;99.90
37086;DHT22;23001;45.952;12.676;2022-10-16T18:44:29;17.10;99.90
37086;DHT22;23001;45.952;12.676;2022-10-16T18:47:06;17.00;99.90
37086;DHT22;23001;45.952;12.676;2022-10-16T18:49:34;17.00;99.90
37086;DHT22;23001;45.952;12.676;2022-10-16T18:52:05;17.10;99.90
37086;DHT22;23001;45.952;12.676;2022-10-16T19:22:37;16.80;99.90
37086;DHT22;23001;45.952;12.676;2022-10-16T19:25:23;16.60;99.90
37086;DHT22;23001;45.952;12.676;2022-10-16T19:27:49;16.60;99.90
37086;DHT22;23001;45.952;12.676;2022-10-16T19:30:16;16.60;99.90
37086;DHT22;23001;45.952;12.676;2022-10-16T20:25:15;16.10;99.90
37086;DHT22;23001;45.952;12.676;2022-10-16T20:27:58;16.10;99.90
37086;DHT22;23001;45.952;12.676;2022-10-16T20:30:46;16.10;99.90
37086;DHT22;23001;45.952;12.676;2022-10-16T20:33:48;16.00;99.90
